sensor_id;sensor_type;location;lat;lon;timestamp;pressure;altitude;pressure_sealevel;temperature;humidity
70217;BME280;65567;55.684;37.570;2023-04-07T00:00:29;100035.59;;;6.63;39.55
70217;BME280;65567;55.684;37.570;2023-04-07T00:02:55;100033.53;;;6.78;39.09
70217;BME280;65567;55.684;37.570;2023-04-07T00:05:21;100037.81;;;6.81;39.10
70217;BME280;65567;55.684;37.570;2023-04-07T00:07:47;100032.09;;;6.65;39.39
70217;BME280;65567;55.684;37.570;2023-04-07T00:10:13;100030.75;;;6.45;39.78
70217;BME280;65567;55.684;37.570;2023-04-07T00:12:39;100039.72;;;6.73;39.45
70217;BME280;65567;55.684;37.570;2023-04-07T00:15:06;100033.22;;;6.92;39.13
70217;BME280;65567;55.684;37.570;2023-04-07T00:17:32;100026.81;;;7.06;38.68
70217;BME280;65567;55.684;37.570;2023-04-07T00:19:58;100029.59;;;7.00;38.81
70217;BME280;65567;55.684;37.570;2023-04-07T00:22:24;100025.88;;;6.71;39.12
70217;BME280;65567;55.684;37.570;2023-04-07T00:24:49;100025.28;;;6.58;39.46
70217;BME280;65567;55.684;37.570;2023-04-07T00:27:15;100030.22;;;6.30;40.01
70217;BME280;65567;55.684;37.570;2023-04-07T00:29:41;100032.75;;;6.33;39.86
70217;BME280;65567;55.684;37.570;2023-04-07T00:32:08;100034.13;;;6.07;40.38
70217;BME280;65567;55.684;37.570;2023-04-07T00:34:34;100037.97;;;6.33;40.18
70217;BME280;65567;55.684;37.570;2023-04-07T00:37:00;100033.19;;;6.11;40.34
70217;BME280;65567;55.684;37.570;2023-04-07T00:39:26;100034.53;;;6.32;39.89
70217;BME280;65567;55.684;37.570;2023-04-07T00:41:52;100038.56;;;6.45;39.92
70217;BME280;65567;55.684;37.570;2023-04-07T00:44:18;100028.66;;;6.63;39.68
70217;BME280;65567;55.684;37.570;2023-04-07T00:46:44;100032.16;;;6.62;39.50
70217;BME280;65567;55.684;37.570;2023-04-07T00:49:12;100040.63;;;6.30;40.01
70217;BME280;65567;55.684;37.570;2023-04-07T00:51:37;100039.91;;;6.21;40.12
70217;BME280;65567;55.684;37.570;2023-04-07T00:54:04;100035.00;;;6.06;40.51
70217;BME280;65567;55.684;37.570;2023-04-07T00:56:31;100034.13;;;6.07;40.47
70217;BME280;65567;55.684;37.570;2023-04-07T00:58:57;100029.94;;;5.96;40.86
70217;BME280;65567;55.684;37.570;2023-04-07T01:01:34;100031.81;;;5.90;40.86
70217;BME280;65567;55.684;37.570;2023-04-07T01:04:14;100035.25;;;5.92;40.81
70217;BME280;65567;55.684;37.570;2023-04-07T01:06:47;100034.34;;;5.94;40.89
70217;BME280;65567;55.684;37.570;2023-04-07T01:09:26;100039.63;;;5.90;40.91
70217;BME280;65567;55.684;37.570;2023-04-07T01:12:09;100036.03;;;5.99;40.86
70217;BME280;65567;55.684;37.570;2023-04-07T01:14:41;100036.03;;;5.99;40.68
70217;BME280;65567;55.684;37.570;2023-04-07T01:17:12;100034.66;;;5.77;40.86
70217;BME280;65567;55.684;37.570;2023-04-07T01:19:52;100040.03;;;5.67;41.23
70217;BME280;65567;55.684;37.570;2023-04-07T01:22:26;100041.16;;;5.52;41.58
70217;BME280;65567;55.684;37.570;2023-04-07T01:25:21;100036.47;;;5.71;41.18
70217;BME280;65567;55.684;37.570;2023-04-07T01:28:00;100033.00;;;5.72;41.23
70217;BME280;65567;55.684;37.570;2023-04-07T01:30:39;100029.47;;;5.76;41.44
70217;BME280;65567;55.684;37.570;2023-04-07T01:33:09;100042.03;;;6.02;40.43
70217;BME280;65567;55.684;37.570;2023-04-07T01:35:36;100039.94;;;5.73;40.91
70217;BME280;65567;55.684;37.570;2023-04-07T01:38:04;100037.28;;;5.74;41.10
70217;BME280;65567;55.684;37.570;2023-04-07T01:40:32;100040.63;;;5.83;40.88
70217;BME280;65567;55.684;37.570;2023-04-07T01:43:00;100034.72;;;5.73;40.87
70217;BME280;65567;55.684;37.570;2023-04-07T01:45:28;100036.44;;;5.74;41.16
70217;BME280;65567;55.684;37.570;2023-04-07T01:47:56;100033.09;;;5.66;41.11
70217;BME280;65567;55.684;37.570;2023-04-07T01:50:23;100030.38;;;5.73;41.06
70217;BME280;65567;55.684;37.570;2023-04-07T01:52:50;100038.81;;;5.86;40.82
70217;BME280;65567;55.684;37.570;2023-04-07T01:55:17;100042.22;;;5.40;41.60
70217;BME280;65567;55.684;37.570;2023-04-07T01:57:43;100035.31;;;5.39;41.77
70217;BME280;65567;55.684;37.570;2023-04-07T02:00:09;100038.69;;;5.44;41.64
70217;BME280;65567;55.684;37.570;2023-04-07T02:02:40;100037.69;;;5.51;41.75
70217;BME280;65567;55.684;37.570;2023-04-07T02:05:11;100038.59;;;5.50;41.72
70217;BME280;65567;55.684;37.570;2023-04-07T02:08:02;100038.16;;;5.75;41.54
70217;BME280;65567;55.684;37.570;2023-04-07T02:10:32;100038.16;;;5.75;41.20
70217;BME280;65567;55.684;37.570;2023-04-07T02:13:00;100041.53;;;5.80;41.07
70217;BME280;65567;55.684;37.570;2023-04-07T02:15:29;100039.72;;;5.34;42.04
70217;BME280;65567;55.684;37.570;2023-04-07T02:18:00;100042.41;;;5.27;42.21
70217;BME280;65567;55.684;37.570;2023-04-07T02:20:27;100044.06;;;5.32;41.76
70217;BME280;65567;55.684;37.570;2023-04-07T02:22:54;100042.31;;;5.34;41.96
70217;BME280;65567;55.684;37.570;2023-04-07T02:25:23;100048.59;;;5.19;42.25
70217;BME280;65567;55.684;37.570;2023-04-07T02:27:48;100039.19;;;5.13;42.66
70217;BME280;65567;55.684;37.570;2023-04-07T02:30:14;100038.75;;;5.39;41.90
70217;BME280;65567;55.684;37.570;2023-04-07T02:32:41;100042.31;;;5.34;41.76
70217;BME280;65567;55.684;37.570;2023-04-07T02:35:07;100042.59;;;5.17;42.35
70217;BME280;65567;55.684;37.570;2023-04-07T02:37:32;100044.06;;;5.32;42.17
70217;BME280;65567;55.684;37.570;2023-04-07T02:39:58;100041.94;;;5.57;41.63
70217;BME280;65567;55.684;37.570;2023-04-07T02:42:24;100038.53;;;5.53;41.52
70217;BME280;65567;55.684;37.570;2023-04-07T02:44:50;100043.75;;;5.52;41.72
70217;BME280;65567;55.684;37.570;2023-04-07T02:47:16;100042.06;;;5.49;41.80
70217;BME280;65567;55.684;37.570;2023-04-07T02:49:42;100048.66;;;5.69;41.55
70217;BME280;65567;55.684;37.570;2023-04-07T02:52:08;100058.44;;;5.54;41.79
70217;BME280;65567;55.684;37.570;2023-04-07T02:54:35;100045.53;;;5.48;41.74
70217;BME280;65567;55.684;37.570;2023-04-07T02:57:01;100049.13;;;5.41;41.97
70217;BME280;65567;55.684;37.570;2023-04-07T02:59:27;100054.13;;;5.53;41.72
70217;BME280;65567;55.684;37.570;2023-04-07T03:01:52;100046.41;;;5.50;41.85
70217;BME280;65567;55.684;37.570;2023-04-07T03:04:18;100047.75;;;5.18;42.30
70217;BME280;65567;55.684;37.570;2023-04-07T03:06:44;100059.78;;;5.24;42.47
70217;BME280;65567;55.684;37.570;2023-04-07T03:09:10;100049.34;;;5.28;42.41
70217;BME280;65567;55.684;37.570;2023-04-07T03:11:36;100056.72;;;5.53;41.70
70217;BME280;65567;55.684;37.570;2023-04-07T03:14:02;100058.03;;;5.79;41.50
70217;BME280;65567;55.684;37.570;2023-04-07T03:16:28;100068.78;;;6.09;40.58
70217;BME280;65567;55.684;37.570;2023-04-07T03:18:54;100062.38;;;6.25;40.25
70217;BME280;65567;55.684;37.570;2023-04-07T03:21:20;100062.53;;;6.61;40.19
70217;BME280;65567;55.684;37.570;2023-04-07T03:23:46;100071.72;;;7.17;38.90
70217;BME280;65567;55.684;37.570;2023-04-07T03:26:11;100056.84;;;7.22;38.39
70217;BME280;65567;55.684;37.570;2023-04-07T03:28:38;100060.91;;;7.34;38.33
70217;BME280;65567;55.684;37.570;2023-04-07T03:31:03;100067.09;;;7.66;37.92
70217;BME280;65567;55.684;37.570;2023-04-07T03:33:29;100065.06;;;8.10;37.29
70217;BME280;65567;55.684;37.570;2023-04-07T03:35:55;100071.34;;;8.35;36.64
70217;BME280;65567;55.684;37.570;2023-04-07T03:38:21;100072.75;;;8.15;36.24
70217;BME280;65567;55.684;37.570;2023-04-07T03:40:47;100084.31;;;8.05;36.89
70217;BME280;65567;55.684;37.570;2023-04-07T03:43:13;100079.63;;;8.19;36.21
70217;BME280;65567;55.684;37.570;2023-04-07T03:45:40;100082.88;;;8.27;36.30
70217;BME280;65567;55.684;37.570;2023-04-07T03:48:07;100077.53;;;8.93;35.60
70217;BME280;65567;55.684;37.570;2023-04-07T03:50:37;100077.47;;;9.50;34.47
70217;BME280;65567;55.684;37.570;2023-04-07T03:53:03;100074.06;;;9.48;34.07
70217;BME280;65567;55.684;37.570;2023-04-07T03:55:30;100071.94;;;10.37;33.15
70217;BME280;65567;55.684;37.570;2023-04-07T03:57:56;100077.63;;;10.23;32.44
70217;BME280;65567;55.684;37.570;2023-04-07T04:00:22;100083.63;;;10.01;32.84
70217;BME280;65567;55.684;37.570;2023-04-07T04:02:48;100074.56;;;10.61;32.17
70217;BME280;65567;55.684;37.570;2023-04-07T04:05:14;100083.06;;;10.89;31.77
70217;BME280;65567;55.684;37.570;2023-04-07T04:07:40;100081.28;;;11.14;31.24
70217;BME280;65567;55.684;37.570;2023-04-07T04:10:06;100079.88;;;11.05;31.36
70217;BME280;65567;55.684;37.570;2023-04-07T04:12:32;100084.22;;;11.28;30.75
70217;BME280;65567;55.684;37.570;2023-04-07T04:14:58;100079.41;;;11.39;30.70
70217;BME280;65567;55.684;37.570;2023-04-07T04:17:24;100085.34;;;11.86;29.84
70217;BME280;65567;55.684;37.570;2023-04-07T04:19:51;100087.25;;;11.82;29.76
70217;BME280;65567;55.684;37.570;2023-04-07T04:22:17;100081.03;;;11.85;30.35
70217;BME280;65567;55.684;37.570;2023-04-07T04:24:43;100092.06;;;12.53;29.13
70217;BME280;65567;55.684;37.570;2023-04-07T04:27:09;100086.09;;;12.31;29.03
70217;BME280;65567;55.684;37.570;2023-04-07T04:29:35;100090.50;;;12.49;29.33
70217;BME280;65567;55.684;37.570;2023-04-07T04:32:01;100085.81;;;12.56;28.68
70217;BME280;65567;55.684;37.570;2023-04-07T04:34:27;100088.22;;;12.22;28.88
70217;BME280;65567;55.684;37.570;2023-04-07T04:36:52;100085.50;;;12.24;29.23
70217;BME280;65567;55.684;37.570;2023-04-07T04:39:18;100086.94;;;12.90;28.44
70217;BME280;65567;55.684;37.570;2023-04-07T04:41:44;100081.28;;;13.17;27.96
70217;BME280;65567;55.684;37.570;2023-04-07T04:44:10;100090.28;;;13.30;27.49
70217;BME280;65567;55.684;37.570;2023-04-07T04:46:36;100092.53;;;12.82;28.16
70217;BME280;65567;55.684;37.570;2023-04-07T04:49:02;100093.06;;;12.51;28.52
70217;BME280;65567;55.684;37.570;2023-04-07T04:51:28;100096.09;;;12.22;28.91
70217;BME280;65567;55.684;37.570;2023-04-07T04:53:54;100097.47;;;12.50;28.92
70217;BME280;65567;55.684;37.570;2023-04-07T04:56:20;100091.81;;;12.98;27.96
70217;BME280;65567;55.684;37.570;2023-04-07T04:58:46;100100.81;;;13.49;27.63
70217;BME280;65567;55.684;37.570;2023-04-07T05:01:12;100099.59;;;13.92;26.75
70217;BME280;65567;55.684;37.570;2023-04-07T05:03:38;100095.19;;;13.75;26.87
70217;BME280;65567;55.684;37.570;2023-04-07T05:06:07;100098.13;;;14.03;26.98
70217;BME280;65567;55.684;37.570;2023-04-07T05:08:33;100095.53;;;14.37;26.42
70217;BME280;65567;55.684;37.570;2023-04-07T05:10:58;100105.00;;;13.88;26.55
70217;BME280;65567;55.684;37.570;2023-04-07T05:13:24;100106.69;;;13.54;27.09
70217;BME280;65567;55.684;37.570;2023-04-07T05:15:50;100116.03;;;13.23;27.64
70217;BME280;65567;55.684;37.570;2023-04-07T05:18:19;100107.22;;;13.05;27.54
70217;BME280;65567;55.684;37.570;2023-04-07T05:20:47;100100.06;;;13.09;27.77
70217;BME280;65567;55.684;37.570;2023-04-07T05:23:13;100111.63;;;13.24;27.58
70217;BME280;65567;55.684;37.570;2023-04-07T05:25:39;100113.56;;;13.20;27.73
70217;BME280;65567;55.684;37.570;2023-04-07T05:28:05;100114.94;;;14.01;26.72
70217;BME280;65567;55.684;37.570;2023-04-07T05:30:31;100109.38;;;14.41;26.36
70217;BME280;65567;55.684;37.570;2023-04-07T05:32:57;100109.91;;;14.97;25.56
70217;BME280;65567;55.684;37.570;2023-04-07T05:35:23;100110.25;;;15.23;25.08
70217;BME280;65567;55.684;37.570;2023-04-07T05:37:49;100117.34;;;15.06;25.12
70217;BME280;65567;55.684;37.570;2023-04-07T05:40:15;100120.44;;;14.65;25.69
70217;BME280;65567;55.684;37.570;2023-04-07T05:42:41;100108.53;;;14.40;26.05
70217;BME280;65567;55.684;37.570;2023-04-07T05:45:08;100113.56;;;14.78;25.83
70217;BME280;65567;55.684;37.570;2023-04-07T05:47:34;100107.78;;;14.87;25.53
70217;BME280;65567;55.684;37.570;2023-04-07T05:50:00;100117.06;;;14.28;25.86
70217;BME280;65567;55.684;37.570;2023-04-07T05:52:26;100123.28;;;14.27;26.13
70217;BME280;65567;55.684;37.570;2023-04-07T05:54:52;100122.84;;;14.52;25.78
70217;BME280;65567;55.684;37.570;2023-04-07T05:57:18;100117.03;;;15.59;24.94
70217;BME280;65567;55.684;37.570;2023-04-07T05:59:44;100115.00;;;15.94;24.21
70217;BME280;65567;55.684;37.570;2023-04-07T06:02:10;100119.97;;;15.22;25.02
70217;BME280;65567;55.684;37.570;2023-04-07T06:04:36;100118.94;;;15.41;24.61
70217;BME280;65567;55.684;37.570;2023-04-07T06:07:04;100116.78;;;15.47;25.01
70217;BME280;65567;55.684;37.570;2023-04-07T06:09:30;100120.81;;;15.23;24.70
70217;BME280;65567;55.684;37.570;2023-04-07T06:11:56;100119.16;;;15.22;25.11
70217;BME280;65567;55.684;37.570;2023-04-07T06:14:22;100126.09;;;15.07;25.19
70217;BME280;65567;55.684;37.570;2023-04-07T06:17:17;100119.63;;;15.44;24.96
70217;BME280;65567;55.684;37.570;2023-04-07T06:19:56;100127.88;;;16.00;24.62
70217;BME280;65567;55.684;37.570;2023-04-07T06:22:22;100128.91;;;15.98;24.19
70217;BME280;65567;55.684;37.570;2023-04-07T06:24:48;100138.72;;;16.55;23.69
70217;BME280;65567;55.684;37.570;2023-04-07T06:27:14;100127.50;;;16.95;23.10
70217;BME280;65567;55.684;37.570;2023-04-07T06:29:41;100129.53;;;17.46;22.62
70217;BME280;65567;55.684;37.570;2023-04-07T06:32:07;100121.94;;;17.54;22.61
70217;BME280;65567;55.684;37.570;2023-04-07T06:34:33;100114.59;;;17.85;22.65
70217;BME280;65567;55.684;37.570;2023-04-07T06:36:59;100117.53;;;18.46;22.08
70217;BME280;65567;55.684;37.570;2023-04-07T06:39:26;100123.25;;;18.79;21.75
70217;BME280;65567;55.684;37.570;2023-04-07T06:41:52;100125.31;;;19.12;21.22
70217;BME280;65567;55.684;37.570;2023-04-07T06:44:18;100126.31;;;18.98;21.26
70217;BME280;65567;55.684;37.570;2023-04-07T06:46:44;100122.44;;;18.40;21.32
70217;BME280;65567;55.684;37.570;2023-04-07T06:49:11;100130.78;;;17.95;21.90
70217;BME280;65567;55.684;37.570;2023-04-07T06:51:37;100129.91;;;17.94;21.84
70217;BME280;65567;55.684;37.570;2023-04-07T06:54:03;100130.81;;;18.46;21.83
70217;BME280;65567;55.684;37.570;2023-04-07T06:56:32;100133.81;;;17.89;22.14
70217;BME280;65567;55.684;37.570;2023-04-07T06:58:58;100132.44;;;17.83;22.08
70217;BME280;65567;55.684;37.570;2023-04-07T07:01:24;100140.13;;;17.18;22.83
70217;BME280;65567;55.684;37.570;2023-04-07T07:03:50;100131.91;;;16.94;22.78
70217;BME280;65567;55.684;37.570;2023-04-07T07:06:16;100130.75;;;17.27;23.28
70217;BME280;65567;55.684;37.570;2023-04-07T07:08:42;100136.75;;;17.84;22.29
70217;BME280;65567;55.684;37.570;2023-04-07T07:11:07;100128.88;;;18.10;21.80
70217;BME280;65567;55.684;37.570;2023-04-07T07:13:33;100132.28;;;18.63;21.31
70217;BME280;65567;55.684;37.570;2023-04-07T07:15:59;100131.16;;;19.18;21.06
70217;BME280;65567;55.684;37.570;2023-04-07T07:18:25;100125.41;;;20.08;20.43
70217;BME280;65567;55.684;37.570;2023-04-07T07:20:52;100128.00;;;20.55;19.85
70217;BME280;65567;55.684;37.570;2023-04-07T07:23:17;100138.38;;;20.71;19.41
70217;BME280;65567;55.684;37.570;2023-04-07T07:25:44;100128.66;;;20.47;19.43
70217;BME280;65567;55.684;37.570;2023-04-07T07:28:09;100124.53;;;21.00;19.08
70217;BME280;65567;55.684;37.570;2023-04-07T07:30:38;100127.41;;;21.08;19.64
70217;BME280;65567;55.684;37.570;2023-04-07T07:33:05;100121.28;;;21.51;18.80
70217;BME280;65567;55.684;37.570;2023-04-07T07:35:31;100123.91;;;20.62;18.91
70217;BME280;65567;55.684;37.570;2023-04-07T07:37:57;100129.09;;;19.83;19.96
70217;BME280;65567;55.684;37.570;2023-04-07T07:40:23;100126.97;;;20.10;19.49
70217;BME280;65567;55.684;37.570;2023-04-07T07:42:49;100132.66;;;19.09;20.32
70217;BME280;65567;55.684;37.570;2023-04-07T07:45:15;100130.50;;;18.51;21.26
70217;BME280;65567;55.684;37.570;2023-04-07T07:47:44;100124.97;;;18.54;21.03
70217;BME280;65567;55.684;37.570;2023-04-07T07:50:10;100126.78;;;18.66;21.02
70217;BME280;65567;55.684;37.570;2023-04-07T07:52:36;100128.47;;;18.29;21.18
70217;BME280;65567;55.684;37.570;2023-04-07T07:55:02;100128.69;;;18.00;21.62
70217;BME280;65567;55.684;37.570;2023-04-07T07:57:28;100124.31;;;17.99;21.55
70217;BME280;65567;55.684;37.570;2023-04-07T07:59:55;100136.09;;;17.40;22.19
70217;BME280;65567;55.684;37.570;2023-04-07T08:02:21;100130.69;;;17.69;22.01
70217;BME280;65567;55.684;37.570;2023-04-07T08:04:47;100125.56;;;17.53;22.03
70217;BME280;65567;55.684;37.570;2023-04-07T08:07:13;100131.97;;;18.16;22.00
70217;BME280;65567;55.684;37.570;2023-04-07T08:09:38;100135.34;;;18.06;21.62
70217;BME280;65567;55.684;37.570;2023-04-07T08:12:04;100121.47;;;18.28;21.13
70217;BME280;65567;55.684;37.570;2023-04-07T08:14:30;100120.16;;;18.98;20.19
70217;BME280;65567;55.684;37.570;2023-04-07T08:16:56;100119.25;;;17.81;20.91
70217;BME280;65567;55.684;37.570;2023-04-07T08:19:23;100125.72;;;17.23;21.77
70217;BME280;65567;55.684;37.570;2023-04-07T08:21:49;100119.56;;;18.04;20.95
70217;BME280;65567;55.684;37.570;2023-04-07T08:24:15;100114.47;;;18.40;20.68
70217;BME280;65567;55.684;37.570;2023-04-07T08:26:41;100123.19;;;18.42;20.56
70217;BME280;65567;55.684;37.570;2023-04-07T08:29:06;100132.25;;;17.59;21.44
70217;BME280;65567;55.684;37.570;2023-04-07T08:31:32;100117.16;;;17.87;21.28
70217;BME280;65567;55.684;37.570;2023-04-07T08:33:58;100118.28;;;18.36;21.15
70217;BME280;65567;55.684;37.570;2023-04-07T08:36:24;100108.31;;;18.13;20.94
70217;BME280;65567;55.684;37.570;2023-04-07T08:38:52;100116.56;;;18.99;20.26
70217;BME280;65567;55.684;37.570;2023-04-07T08:41:39;100121.31;;;19.31;19.94
70217;BME280;65567;55.684;37.570;2023-04-07T08:44:09;100105.00;;;19.24;19.96
70217;BME280;65567;55.684;37.570;2023-04-07T08:46:40;100104.81;;;19.63;19.62
70217;BME280;65567;55.684;37.570;2023-04-07T08:49:09;100117.75;;;19.92;19.41
70217;BME280;65567;55.684;37.570;2023-04-07T08:51:36;100112.09;;;20.08;19.29
70217;BME280;65567;55.684;37.570;2023-04-07T08:54:08;100103.16;;;19.01;19.89
70217;BME280;65567;55.684;37.570;2023-04-07T08:56:39;100114.22;;;18.81;20.22
70217;BME280;65567;55.684;37.570;2023-04-07T08:59:11;100103.84;;;18.53;20.27
70217;BME280;65567;55.684;37.570;2023-04-07T09:01:38;100109.38;;;18.75;20.27
70217;BME280;65567;55.684;37.570;2023-04-07T09:04:05;100101.94;;;19.18;19.41
70217;BME280;65567;55.684;37.570;2023-04-07T09:06:32;100121.88;;;18.99;18.90
70217;BME280;65567;55.684;37.570;2023-04-07T09:09:02;100098.84;;;19.24;18.76
70217;BME280;65567;55.684;37.570;2023-04-07T09:11:34;100109.72;;;19.08;19.09
70217;BME280;65567;55.684;37.570;2023-04-07T09:14:01;100093.66;;;18.33;19.79
70217;BME280;65567;55.684;37.570;2023-04-07T09:16:30;100101.09;;;18.41;19.69
70217;BME280;65567;55.684;37.570;2023-04-07T09:18:57;100104.25;;;18.72;19.47
70217;BME280;65567;55.684;37.570;2023-04-07T09:21:23;100106.19;;;18.70;19.56
70217;BME280;65567;55.684;37.570;2023-04-07T09:23:50;100100.06;;;18.18;19.82
70217;BME280;65567;55.684;37.570;2023-04-07T09:26:26;100100.06;;;18.05;20.22
70217;BME280;65567;55.684;37.570;2023-04-07T09:28:53;100100.16;;;17.76;20.22
70217;BME280;65567;55.684;37.570;2023-04-07T09:31:23;100095.88;;;17.06;20.97
70217;BME280;65567;55.684;37.570;2023-04-07T09:34:23;100091.06;;;17.80;20.72
70217;BME280;65567;55.684;37.570;2023-04-07T09:36:49;100113.69;;;18.76;19.68
70217;BME280;65567;55.684;37.570;2023-04-07T09:39:15;100101.16;;;19.28;19.33
70217;BME280;65567;55.684;37.570;2023-04-07T09:41:41;100096.84;;;18.52;19.47
70217;BME280;65567;55.684;37.570;2023-04-07T09:44:07;100094.72;;;18.31;19.45
70217;BME280;65567;55.684;37.570;2023-04-07T09:46:47;100094.78;;;17.91;19.82
70217;BME280;65567;55.684;37.570;2023-04-07T09:49:14;100104.31;;;17.40;20.79
70217;BME280;65567;55.684;37.570;2023-04-07T09:52:01;100094.00;;;18.03;19.92
70217;BME280;65567;55.684;37.570;2023-04-07T09:54:36;100097.59;;;18.15;20.05
70217;BME280;65567;55.684;37.570;2023-04-07T09:57:04;100099.81;;;17.68;19.83
70217;BME280;65567;55.684;37.570;2023-04-07T09:59:31;100098.84;;;17.56;20.29
70217;BME280;65567;55.684;37.570;2023-04-07T10:01:58;100105.53;;;18.02;19.88
70217;BME280;65567;55.684;37.570;2023-04-07T10:04:26;100092.91;;;17.93;19.90
70217;BME280;65567;55.684;37.570;2023-04-07T10:06:54;100089.00;;;18.11;19.49
70217;BME280;65567;55.684;37.570;2023-04-07T10:09:27;100107.16;;;18.17;19.13
70217;BME280;65567;55.684;37.570;2023-04-07T10:11:55;100096.53;;;18.43;19.02
70217;BME280;65567;55.684;37.570;2023-04-07T10:14:29;100106.19;;;18.19;19.10
70217;BME280;65567;55.684;37.570;2023-04-07T10:16:56;100105.00;;;17.97;19.17
70217;BME280;65567;55.684;37.570;2023-04-07T10:19:23;100099.75;;;17.42;19.60
70217;BME280;65567;55.684;37.570;2023-04-07T10:21:51;100108.41;;;17.59;19.87
70217;BME280;65567;55.684;37.570;2023-04-07T10:27:09;100101.78;;;17.92;19.31
70217;BME280;65567;55.684;37.570;2023-04-07T10:29:41;100086.69;;;18.07;19.57
70217;BME280;65567;55.684;37.570;2023-04-07T10:32:13;100096.41;;;18.06;19.17
70217;BME280;65567;55.684;37.570;2023-04-07T10:37:16;100094.25;;;17.86;19.40
70217;BME280;65567;55.684;37.570;2023-04-07T10:39:50;100113.94;;;16.85;20.31
70217;BME280;65567;55.684;37.570;2023-04-07T10:45:15;100102.03;;;17.07;20.34
70217;BME280;65567;55.684;37.570;2023-04-07T10:50:23;100108.28;;;15.58;21.59
70217;BME280;65567;55.684;37.570;2023-04-07T10:55:44;100110.72;;;15.61;21.27
70217;BME280;65567;55.684;37.570;2023-04-07T10:58:23;100107.41;;;16.04;20.95
70217;BME280;65567;55.684;37.570;2023-04-07T11:03:30;100102.56;;;15.66;21.66
70217;BME280;65567;55.684;37.570;2023-04-07T11:06:06;100108.41;;;14.59;22.48
70217;BME280;65567;55.684;37.570;2023-04-07T11:08:50;100106.38;;;15.14;22.24
70217;BME280;65567;55.684;37.570;2023-04-07T11:11:33;100103.47;;;14.86;22.04
70217;BME280;65567;55.684;37.570;2023-04-07T11:14:00;100117.94;;;15.11;21.97
70217;BME280;65567;55.684;37.570;2023-04-07T11:16:41;100102.19;;;14.60;22.25
70217;BME280;65567;55.684;37.570;2023-04-07T11:19:08;100097.69;;;14.29;22.72
70217;BME280;65567;55.684;37.570;2023-04-07T11:21:34;100110.72;;;14.14;22.75
70217;BME280;65567;55.684;37.570;2023-04-07T11:24:01;100097.34;;;13.84;23.54
70217;BME280;65567;55.684;37.570;2023-04-07T11:26:27;100101.25;;;14.28;23.16
70217;BME280;65567;55.684;37.570;2023-04-07T11:28:55;100092.53;;;13.92;23.31
70217;BME280;65567;55.684;37.570;2023-04-07T11:31:24;100091.31;;;13.99;23.38
70217;BME280;65567;55.684;37.570;2023-04-07T11:33:55;100101.66;;;13.85;23.56
70217;BME280;65567;55.684;37.570;2023-04-07T11:36:33;100098.59;;;13.59;23.29
70217;BME280;65567;55.684;37.570;2023-04-07T11:39:00;100102.38;;;13.34;23.79
70217;BME280;65567;55.684;37.570;2023-04-07T11:41:28;100102.28;;;13.55;23.96
70217;BME280;65567;55.684;37.570;2023-04-07T11:44:09;100104.09;;;13.90;23.73
70217;BME280;65567;55.684;37.570;2023-04-07T11:46:35;100089.13;;;14.08;23.33
70217;BME280;65567;55.684;37.570;2023-04-07T11:49:13;100103.84;;;14.12;23.40
70217;BME280;65567;55.684;37.570;2023-04-07T11:51:42;100095.63;;;14.00;23.47
70217;BME280;65567;55.684;37.570;2023-04-07T11:54:09;100105.16;;;14.20;23.02
70217;BME280;65567;55.684;37.570;2023-04-07T11:56:46;100091.63;;;13.93;23.60
70217;BME280;65567;55.684;37.570;2023-04-07T11:59:20;100099.91;;;13.85;23.29
70217;BME280;65567;55.684;37.570;2023-04-07T12:01:48;100087.25;;;14.10;23.08
70217;BME280;65567;55.684;37.570;2023-04-07T12:04:15;100085.88;;;14.02;23.04
70217;BME280;65567;55.684;37.570;2023-04-07T12:06:43;100085.72;;;14.57;22.68
70217;BME280;65567;55.684;37.570;2023-04-07T12:09:28;100094.34;;;14.43;22.59
70217;BME280;65567;55.684;37.570;2023-04-07T12:11:55;100082.28;;;14.54;22.64
70217;BME280;65567;55.684;37.570;2023-04-07T12:14:22;100086.06;;;14.66;22.62
70217;BME280;65567;55.684;37.570;2023-04-07T12:16:48;100095.44;;;14.38;22.13
70217;BME280;65567;55.684;37.570;2023-04-07T12:19:15;100094.88;;;14.49;22.38
70217;BME280;65567;55.684;37.570;2023-04-07T12:21:41;100087.03;;;14.48;22.56
70217;BME280;65567;55.684;37.570;2023-04-07T12:24:08;100086.88;;;14.51;22.69
70217;BME280;65567;55.684;37.570;2023-04-07T12:26:33;100088.56;;;14.52;22.71
70217;BME280;65567;55.684;37.570;2023-04-07T12:28:59;100091.97;;;14.03;23.11
70217;BME280;65567;55.684;37.570;2023-04-07T12:31:33;100083.47;;;13.98;23.43
70217;BME280;65567;55.684;37.570;2023-04-07T12:33:59;100084.56;;;14.11;23.23
70217;BME280;65567;55.684;37.570;2023-04-07T12:36:25;100089.66;;;13.79;23.58
70217;BME280;65567;55.684;37.570;2023-04-07T12:38:52;100086.19;;;14.14;23.48
70217;BME280;65567;55.684;37.570;2023-04-07T12:41:19;100100.34;;;13.94;23.28
70217;BME280;65567;55.684;37.570;2023-04-07T12:43:45;100103.06;;;14.10;22.92
70217;BME280;65567;55.684;37.570;2023-04-07T12:46:11;100088.34;;;14.05;22.96
70217;BME280;65567;55.684;37.570;2023-04-07T12:48:37;100102.13;;;14.28;22.91
70217;BME280;65567;55.684;37.570;2023-04-07T12:51:03;100078.19;;;14.49;22.57
70217;BME280;65567;55.684;37.570;2023-04-07T12:53:30;100080.16;;;14.28;23.02
70217;BME280;65567;55.684;37.570;2023-04-07T12:55:55;100081.22;;;13.55;24.05
70217;BME280;65567;55.684;37.570;2023-04-07T12:58:23;100076.66;;;13.59;23.77
70217;BME280;65567;55.684;37.570;2023-04-07T13:00:51;100072.94;;;13.98;23.47
70217;BME280;65567;55.684;37.570;2023-04-07T13:03:16;100079.81;;;14.18;23.27